Time;durP1;ratioP1;P1;durP2;ratioP2;P2;SDS_P1;SDS_P2;PMS_P1;PMS_P2;Temp;Humidity;BMP_temperature;BMP_pressure;BME280_temperature;BME280_humidity;BME280_pressure;Samples;Min_cycle;Max_cycle;Signal;HPM_P1;HPM_P2
2022/11/01 00:01:48;;;;;;;0.00;0.00;;;13.80;99.90;;;;;;5047816;28;20036;-83
2022/11/01 00:04:15;;;;;;;0.00;0.00;;;13.70;99.90;;;;;;5041490;28;20041;-81
2022/11/01 00:06:44;;;;;;;0.00;0.00;;;13.70;99.90;;;;;;5049245;28;20049;-82
2022/11/01 00:09:11;;;;;;;0.00;0.00;;;13.70;99.90;;;;;;5049990;28;20076;-82
2022/11/01 00:11:38;;;;;;;0.00;0.00;;;13.70;99.90;;;;;;5040669;28;20064;-81
2022/11/01 00:14:04;;;;;;;0.00;0.00;;;13.70;99.90;;;;;;5045279;28;20047;-81
2022/11/01 00:16:31;;;;;;;0.00;0.00;;;13.70;99.90;;;;;;5045425;28;20037;-82
2022/11/01 00:18:58;;;;;;;0.00;0.00;;;13.70;99.90;;;;;;5051219;28;20043;-82
2022/11/01 00:21:25;;;;;;;0.00;0.00;;;;;;;;;;5047020;28;20501;-82
2022/11/01 00:23:53;;;;;;;0.00;0.00;;;13.70;99.90;;;;;;5047570;28;20048;-82
2022/11/01 00:26:22;;;;;;;0.00;0.00;;;13.80;99.90;;;;;;5044504;28;20040;-82
2022/11/01 00:28:50;;;;;;;0.10;0.10;;;13.90;99.90;;;;;;5050756;28;20513;-82
2022/11/01 00:31:18;;;;;;;0.00;0.00;;;13.80;99.90;;;;;;5046984;28;20493;-82
2022/11/01 00:33:46;;;;;;;0.00;0.00;;;13.80;99.90;;;;;;5045937;28;20076;-82
2022/11/01 00:36:13;;;;;;;0.00;0.00;;;13.90;99.90;;;;;;5043147;28;20040;-82
2022/11/01 00:38:40;;;;;;;0.00;0.00;;;;;;;;;;5040507;28;20052;-81
2022/11/01 00:41:09;;;;;;;0.00;0.00;;;14.00;99.90;;;;;;5043606;28;20047;-83
2022/11/01 00:43:36;;;;;;;0.00;0.00;;;14.00;99.90;;;;;;5043984;28;20433;-81
2022/11/01 00:46:03;;;;;;;0.03;0.03;;;14.10;99.90;;;;;;5046040;28;20051;-82
2022/11/01 00:48:31;;;;;;;0.00;0.00;;;14.10;99.90;;;;;;5044679;28;20045;-82
2022/11/01 00:50:57;;;;;;;0.00;0.00;;;14.10;99.90;;;;;;5043982;28;20067;-82
2022/11/01 00:53:24;;;;;;;0.10;0.10;;;14.10;99.90;;;;;;5046545;28;20051;-82
2022/11/01 00:55:51;;;;;;;0.00;0.00;;;14.20;99.90;;;;;;5046622;28;20045;-82
2022/11/01 00:58:19;;;;;;;0.00;0.00;;;14.20;99.90;;;;;;5047140;28;20055;-82
2022/11/01 01:00:49;;;;;;;0.00;0.00;;;14.20;99.90;;;;;;5047141;28;20053;-81
2022/11/01 01:03:16;;;;;;;;;;;14.20;99.90;;;;;;5042612;28;20041;-82
2022/11/01 01:05:43;;;;;;;0.00;0.00;;;14.30;99.90;;;;;;5057437;28;19928;-81
2022/11/01 01:08:10;;;;;;;0.00;0.00;;;14.20;99.90;;;;;;5050308;28;20044;-81
2022/11/01 01:10:37;;;;;;;0.00;0.00;;;14.20;99.90;;;;;;5047587;28;20413;-81
2022/11/01 01:13:03;;;;;;;0.00;0.00;;;14.30;99.90;;;;;;5044648;28;20040;-82
2022/11/01 01:15:32;;;;;;;0.00;0.00;;;14.30;99.90;;;;;;5046898;28;20501;-82
2022/11/01 01:17:59;;;;;;;0.00;0.00;;;;;;;;;;5050115;28;20039;-82
2022/11/01 01:20:27;;;;;;;0.00;0.00;;;;;;;;;;5041400;28;20057;-82
2022/11/01 01:22:54;;;;;;;0.00;0.00;;;;;;;;;;5051191;28;20045;-82
2022/11/01 01:25:21;;;;;;;0.00;0.00;;;14.20;99.90;;;;;;5049387;28;20476;-82
2022/11/01 01:27:49;;;;;;;0.10;0.10;;;14.30;99.90;;;;;;5049864;28;20055;-83
2022/11/01 01:30:15;;;;;;;0.05;0.05;;;14.30;99.90;;;;;;5047544;28;20059;-82
2022/11/01 01:32:44;;;;;;;0.00;0.00;;;14.20;99.90;;;;;;5048599;28;20041;-82
2022/11/01 01:35:10;;;;;;;0.00;0.00;;;14.30;99.90;;;;;;5052685;28;20489;-81
2022/11/01 01:37:37;;;;;;;0.00;0.00;;;14.40;99.90;;;;;;5052864;28;20048;-81
2022/11/01 01:40:07;;;;;;;0.00;0.00;;;14.20;99.90;;;;;;5046459;28;20052;-81
2022/11/01 01:42:35;;;;;;;;;;;14.20;99.90;;;;;;5049464;28;20044;-81
2022/11/01 01:45:28;;;;;;;0.00;0.00;;;14.20;99.90;;;;;;5050292;28;19921;-82
2022/11/01 01:48:01;;;;;;;0.00;0.00;;;14.30;99.90;;;;;;5053101;28;20049;-81
2022/11/01 01:50:33;;;;;;;0.00;0.00;;;14.30;99.90;;;;;;5049817;28;20622;-82
2022/11/01 01:53:03;;;;;;;0.10;0.10;;;14.40;99.90;;;;;;5045718;28;20607;-82
2022/11/01 01:55:36;;;;;;;0.00;0.00;;;14.30;99.90;;;;;;5049368;28;20056;-82
2022/11/01 01:58:04;;;;;;;0.00;0.00;;;14.30;99.90;;;;;;5045282;28;20057;-81
2022/11/01 02:00:31;;;;;;;0.00;0.00;;;14.40;99.90;;;;;;5044000;28;20046;-81
2022/11/01 02:02:59;;;;;;;0.00;0.00;;;14.50;99.90;;;;;;5048889;28;20511;-83
2022/11/01 02:05:35;;;;;;;0.00;0.00;;;14.50;99.90;;;;;;5046187;28;20049;-81
2022/11/01 02:08:02;;;;;;;0.00;0.00;;;;;;;;;;5062437;28;20521;-83
2022/11/01 02:10:31;;;;;;;0.00;0.00;;;14.50;99.90;;;;;;5047335;28;20394;-82
2022/11/01 02:12:58;;;;;;;0.00;0.00;;;14.50;99.90;;;;;;5044897;28;20059;-81
2022/11/01 02:15:34;;;;;;;0.00;0.00;;;14.50;99.90;;;;;;5043798;28;20049;-82
2022/11/01 02:18:15;;;;;;;0.00;0.00;;;14.40;99.90;;;;;;5050175;28;20531;-81
2022/11/01 02:20:59;;;;;;;0.00;0.00;;;14.50;99.90;;;;;;5049312;28;20243;-81
2022/11/01 02:23:49;;;;;;;0.00;0.00;;;14.50;99.90;;;;;;5036297;28;20045;-82
2022/11/01 02:26:35;;;;;;;;;;;14.50;99.90;;;;;;5050653;28;20052;-82
2022/11/01 02:29:13;;;;;;;0.00;0.00;;;14.50;99.90;;;;;;5059005;28;20285;-81
2022/11/01 02:32:08;;;;;;;0.00;0.00;;;14.50;99.90;;;;;;5050318;28;20049;-81
2022/11/01 02:34:40;;;;;;;0.00;0.00;;;14.40;99.90;;;;;;5049276;28;20035;-82
2022/11/01 02:37:12;;;;;;;0.00;0.00;;;14.40;99.90;;;;;;5049649;28;20531;-82
2022/11/01 02:39:43;;;;;;;0.00;0.00;;;14.40;99.90;;;;;;5045016;28;20067;-81
2022/11/01 02:42:13;;;;;;;0.00;0.00;;;14.40;99.90;;;;;;5049409;28;20041;-81
2022/11/01 02:44:44;;;;;;;0.00;0.00;;;14.40;99.90;;;;;;5044072;28;20075;-81
2022/11/01 02:47:13;;;;;;;0.00;0.00;;;14.40;99.90;;;;;;5048869;28;20033;-82
2022/11/01 02:49:41;;;;;;;0.10;0.10;;;14.50;99.90;;;;;;5047610;28;20082;-82
2022/11/01 02:52:12;;;;;;;0.00;0.00;;;14.50;99.90;;;;;;5044163;28;20077;-82
2022/11/01 02:54:41;;;;;;;0.00;0.00;;;14.60;99.90;;;;;;5044352;28;20033;-82
2022/11/01 02:57:25;;;;;;;0.00;0.00;;;14.60;99.90;;;;;;5042700;28;20038;-81
2022/11/01 02:59:52;;;;;;;0.00;0.00;;;14.70;99.90;;;;;;5044613;28;20039;-82
2022/11/01 03:02:38;;;;;;;0.00;0.00;;;14.70;99.90;;;;;;5047316;28;20061;-82
2022/11/01 03:05:09;;;;;;;0.00;0.00;;;14.70;99.90;;;;;;5047057;28;20064;-81
2022/11/01 03:07:37;;;;;;;0.00;0.00;;;14.70;99.90;;;;;;5041052;28;20041;-81
2022/11/01 03:10:05;;;;;;;0.00;0.00;;;15.00;99.90;;;;;;5048868;28;20048;-82
2022/11/01 03:12:36;;;;;;;0.00;0.00;;;14.80;99.90;;;;;;5047713;28;20416;-81
2022/11/01 03:15:19;;;;;;;0.00;0.00;;;14.80;99.90;;;;;;5044872;28;20047;-82
2022/11/01 03:17:52;;;;;;;0.00;0.00;;;14.80;99.90;;;;;;5046615;28;20083;-82
2022/11/01 03:20:23;;;;;;;0.00;0.00;;;14.70;99.90;;;;;;5049336;28;20041;-82
2022/11/01 03:22:54;;;;;;;0.00;0.00;;;14.80;99.90;;;;;;5044911;28;20150;-82
2022/11/01 03:25:43;;;;;;;0.00;0.00;;;14.80;99.90;;;;;;5042376;28;20068;-81
2022/11/01 03:28:14;;;;;;;0.00;0.00;;;14.90;99.90;;;;;;5045935;28;20507;-82
2022/11/01 03:30:45;;;;;;;0.00;0.00;;;14.80;99.90;;;;;;5045828;28;20516;-83
2022/11/01 03:33:15;;;;;;;0.00;0.00;;;14.80;99.90;;;;;;5046202;28;20047;-82
2022/11/01 03:35:46;;;;;;;0.10;0.10;;;14.80;99.90;;;;;;5046724;28;20047;-82
2022/11/01 03:38:17;;;;;;;0.00;0.00;;;14.90;99.90;;;;;;5041693;28;20402;-82
2022/11/01 03:40:54;;;;;;;0.00;0.00;;;14.90;99.90;;;;;;5044088;28;20049;-81
2022/11/01 03:43:25;;;;;;;0.00;0.00;;;14.90;99.90;;;;;;5046701;28;20519;-83
2022/11/01 03:45:53;;;;;;;0.00;0.00;;;14.80;99.90;;;;;;5045057;28;20045;-83
2022/11/01 03:48:21;;;;;;;0.00;0.00;;;14.80;99.90;;;;;;5043416;28;20029;-82
2022/11/01 03:50:50;;;;;;;0.00;0.00;;;14.80;99.90;;;;;;5041035;28;20041;-82
2022/11/01 03:53:17;;;;;;;0.00;0.00;;;14.80;99.90;;;;;;5042585;28;20508;-83
2022/11/01 03:55:44;;;;;;;0.10;0.10;;;14.80;99.90;;;;;;5044581;28;20059;-83
2022/11/01 03:58:11;;;;;;;0.00;0.00;;;;;;;;;;5046968;28;20098;-82
2022/11/01 04:00:40;;;;;;;0.00;0.00;;;14.90;99.90;;;;;;5046150;28;20039;-81
2022/11/01 04:03:08;;;;;;;0.10;0.10;;;14.90;99.90;;;;;;5043941;28;20045;-82
2022/11/01 04:05:38;;;;;;;0.10;0.10;;;15.20;99.90;;;;;;5043988;28;20768;-82
2022/11/01 04:08:05;;;;;;;;;;;14.90;99.90;;;;;;5046562;28;20051;-81
2022/11/01 04:10:33;;;;;;;0.00;0.00;;;14.90;99.90;;;;;;5062054;28;19955;-82
2022/11/01 04:13:00;;;;;;;0.00;0.00;;;14.90;99.90;;;;;;5044748;28;20044;-83
2022/11/01 04:21:06;;;;;;;0.00;0.00;;;14.90;99.90;;;;;;5045359;28;20045;-82
2022/11/01 04:23:33;;;;;;;0.00;0.00;;;15.00;99.90;;;;;;5045222;28;20041;-81
2022/11/01 04:26:01;;;;;;;0.00;0.00;;;15.10;99.90;;;;;;5062163;28;20515;-82
2022/11/01 04:28:28;;;;;;;0.00;0.00;;;15.00;99.90;;;;;;5048227;28;20815;-81
2022/11/01 04:30:55;;;;;;;0.00;0.00;;;14.90;99.90;;;;;;5047620;28;20065;-83
2022/11/01 04:33:22;;;;;;;0.00;0.00;;;14.90;99.90;;;;;;5038470;28;20057;-83
2022/11/01 04:35:49;;;;;;;0.00;0.00;;;15.30;99.90;;;;;;5042579;28;20030;-82
2022/11/01 04:38:17;;;;;;;0.00;0.00;;;15.10;99.90;;;;;;5046207;28;20204;-82
2022/11/01 04:40:44;;;;;;;0.00;0.00;;;15.00;99.90;;;;;;5044136;28;20072;-82
2022/11/01 04:43:12;;;;;;;0.00;0.00;;;16.00;99.90;;;;;;5044729;28;20056;-82
2022/11/01 04:45:39;;;;;;;0.00;0.00;;;15.00;99.90;;;;;;5043380;28;20440;-82
2022/11/01 04:48:07;;;;;;;0.00;0.00;;;15.00;99.90;;;;;;5047976;28;20044;-82
2022/11/01 04:50:34;;;;;;;0.00;0.00;;;15.00;99.90;;;;;;5043918;28;20041;-82
2022/11/01 04:53:02;;;;;;;0.00;0.00;;;;;;;;;;5047190;28;20049;-81
2022/11/01 04:55:30;;;;;;;0.00;0.00;;;15.00;99.90;;;;;;5050682;28;20091;-82
2022/11/01 04:57:58;;;;;;;0.00;0.00;;;;;;;;;;5049624;28;20041;-82
2022/11/01 05:00:25;;;;;;;0.00;0.00;;;;;;;;;;5043887;28;20123;-83
2022/11/01 05:02:59;;;;;;;0.00;0.00;;;15.00;99.90;;;;;;5043160;28;20061;-80
2022/11/01 05:05:27;;;;;;;0.00;0.00;;;14.90;99.90;;;;;;5046687;28;20689;-82
2022/11/01 05:07:58;;;;;;;0.00;0.00;;;15.00;99.90;;;;;;5052203;28;20048;-82
2022/11/01 05:10:31;;;;;;;0.00;0.00;;;15.00;99.90;;;;;;5043083;28;20049;-82
2022/11/01 05:12:58;;;;;;;0.00;0.00;;;15.00;99.90;;;;;;5074779;23;20472;-84
2022/11/01 05:15:25;;;;;;;0.00;0.00;;;15.00;99.90;;;;;;5059632;28;20043;-86
2022/11/01 05:17:52;;;;;;;0.00;0.00;;;14.90;99.90;;;;;;5055181;28;20073;-85
2022/11/01 05:20:19;;;;;;;0.00;0.00;;;;;;;;;;5050257;28;20052;-85
2022/11/01 05:22:47;;;;;;;0.00;0.00;;;;;;;;;;5040723;28;20123;-84
2022/11/01 05:25:15;;;;;;;0.00;0.00;;;;;;;;;;5034052;28;20042;-85
2022/11/01 05:27:43;;;;;;;0.00;0.00;;;14.80;99.90;;;;;;5039374;28;20083;-86
2022/11/01 05:30:12;;;;;;;0.00;0.00;;;14.80;99.90;;;;;;5037826;28;20041;-84
2022/11/01 05:32:40;;;;;;;0.00;0.00;;;;;;;;;;5035811;28;20054;-85
2022/11/01 05:35:07;;;;;;;0.00;0.00;;;;;;;;;;5039464;28;20406;-83
2022/11/01 05:37:35;;;;;;;0.10;0.10;;;;;;;;;;5033678;28;20136;-86
2022/11/01 05:40:02;;;;;;;0.00;0.00;;;;;;;;;;5035888;28;20482;-83
2022/11/01 05:42:30;;;;;;;0.00;0.00;;;;;;;;;;5042399;28;20045;-86
2022/11/01 05:44:58;;;;;;;0.00;0.00;;;14.80;99.90;;;;;;5039959;28;20044;-84
2022/11/01 05:47:25;;;;;;;0.00;0.00;;;;;;;;;;5046715;28;20056;-84
2022/11/01 05:49:52;;;;;;;0.00;0.00;;;14.80;99.90;;;;;;5037652;28;20094;-87
2022/11/01 05:52:19;;;;;;;0.00;0.00;;;;;;;;;;5036259;28;20104;-84
2022/11/01 05:54:46;;;;;;;0.00;0.00;;;;;;;;;;5029172;28;20037;-84
2022/11/01 05:57:13;;;;;;;0.00;0.00;;;;;;;;;;5035853;28;20125;-84
2022/11/01 05:59:41;;;;;;;0.00;0.00;;;;;;;;;;5046670;28;20069;-85
2022/11/01 06:02:09;;;;;;;0.00;0.00;;;14.80;99.90;;;;;;5035197;28;20049;-86
2022/11/01 06:04:36;;;;;;;0.00;0.00;;;;;;;;;;5030521;28;20056;-85
2022/11/01 06:07:03;;;;;;;0.00;0.00;;;;;;;;;;5037247;28;20148;-88
2022/11/01 06:09:31;;;;;;;0.00;0.00;;;;;;;;;;5034728;28;20077;-84
2022/11/01 06:11:58;;;;;;;0.00;0.00;;;;;;;;;;5040576;28;20619;-89
2022/11/01 06:14:25;;;;;;;0.00;0.00;;;14.80;99.90;;;;;;5031988;28;20061;-84
2022/11/01 06:16:52;;;;;;;0.00;0.00;;;14.80;99.90;;;;;;5032366;28;20057;-85
2022/11/01 06:19:20;;;;;;;0.00;0.00;;;15.00;99.90;;;;;;5040564;28;20505;-84
2022/11/01 06:21:47;;;;;;;0.00;0.00;;;;;;;;;;5038151;28;20050;-85
2022/11/01 06:24:14;;;;;;;0.00;0.00;;;14.70;99.90;;;;;;5031439;28;20068;-85
2022/11/01 06:26:41;;;;;;;0.00;0.00;;;;;;;;;;5037486;28;20345;-85
2022/11/01 06:29:08;;;;;;;0.00;0.00;;;;;;;;;;5034166;28;20192;-85
2022/11/01 06:31:36;;;;;;;0.00;0.00;;;;;;;;;;5038321;28;20133;-86
2022/11/01 06:34:03;;;;;;;0.00;0.00;;;;;;;;;;5041632;28;20041;-84
2022/11/01 06:36:31;;;;;;;0.00;0.00;;;14.80;99.90;;;;;;5044162;28;20075;-84
2022/11/01 06:38:59;;;;;;;0.00;0.00;;;;;;;;;;5042746;28;20041;-84
2022/11/01 06:41:26;;;;;;;0.00;0.00;;;;;;;;;;5035047;28;20128;-87
2022/11/01 06:43:53;;;;;;;0.00;0.00;;;;;;;;;;5033098;28;20140;-85
2022/11/01 06:46:20;;;;;;;0.00;0.00;;;;;;;;;;5045220;28;20073;-86
2022/11/01 06:48:47;;;;;;;0.00;0.00;;;14.90;99.90;;;;;;5040959;28;20140;-85
2022/11/01 06:51:15;;;;;;;0.00;0.00;;;;;;;;;;5045387;28;20128;-83
2022/11/01 06:53:43;;;;;;;0.00;0.00;;;15.00;99.90;;;;;;5029716;28;20093;-84
2022/11/01 06:56:10;;;;;;;0.00;0.00;;;;;;;;;;5044963;28;20402;-84
2022/11/01 06:58:37;;;;;;;0.00;0.00;;;;;;;;;;5038855;28;20456;-84
2022/11/01 07:01:04;;;;;;;0.00;0.00;;;;;;;;;;5039059;28;20465;-85
2022/11/01 07:03:32;;;;;;;0.00;0.00;;;;;;;;;;5030139;28;20113;-84
2022/11/01 07:05:59;;;;;;;0.00;0.00;;;;;;;;;;5040906;28;20133;-83
2022/11/01 07:08:27;;;;;;;0.00;0.00;;;;;;;;;;5038849;28;20117;-84
2022/11/01 07:10:55;;;;;;;0.00;0.00;;;15.10;99.90;;;;;;5036901;28;20124;-85
2022/11/01 07:13:22;;;;;;;0.00;0.00;;;;;;;;;;5028670;28;20549;-85
2022/11/01 07:15:49;;;;;;;0.00;0.00;;;15.20;99.90;;;;;;5033396;28;20053;-85
2022/11/01 07:18:16;;;;;;;0.00;0.00;;;15.50;99.90;;;;;;5045319;28;20553;-84
2022/11/01 07:20:43;;;;;;;0.00;0.00;;;;;;;;;;5041815;28;20120;-85
2022/11/01 07:23:12;;;;;;;0.00;0.00;;;15.40;99.90;;;;;;5040683;28;20080;-85
2022/11/01 07:25:39;;;;;;;0.00;0.00;;;;;;;;;;5038291;28;20042;-84
2022/11/01 07:28:08;;;;;;;0.00;0.00;;;15.50;99.90;;;;;;5043307;28;20549;-85
2022/11/01 07:30:35;;;;;;;0.00;0.00;;;;;;;;;;5034999;28;20049;-85
2022/11/01 07:33:03;;;;;;;0.00;0.00;;;15.50;99.90;;;;;;5032971;28;20108;-84
2022/11/01 07:35:31;;;;;;;0.00;0.00;;;17.80;99.90;;;;;;5027781;28;20072;-86
2022/11/01 07:37:59;;;;;;;0.00;0.00;;;15.60;99.90;;;;;;5032204;28;20132;-84
2022/11/01 07:40:30;;;;;;;0.00;0.00;;;;;;;;;;5029692;28;20045;-85
2022/11/01 07:42:59;;;;;;;0.00;0.00;;;15.70;99.90;;;;;;5029896;28;20466;-84
2022/11/01 07:45:28;;;;;;;0.00;0.00;;;16.20;99.90;;;;;;5033897;28;20037;-85
2022/11/01 07:47:57;;;;;;;;;;;15.70;99.90;;;;;;5037022;28;20057;-87
2022/11/01 07:50:24;;;;;;;0.00;0.00;;;;;;;;;;5035976;28;19956;-85
2022/11/01 07:52:58;;;;;;;0.00;0.00;;;15.70;99.90;;;;;;5031195;28;20065;-85
2022/11/01 07:55:26;;;;;;;0.00;0.00;;;;;;;;;;5051280;28;20350;-85
2022/11/01 07:57:53;;;;;;;0.00;0.00;;;;;;;;;;5039129;28;20635;-84
2022/11/01 08:00:20;;;;;;;0.00;0.00;;;15.90;99.90;;;;;;5031887;28;20068;-86
2022/11/01 08:02:49;;;;;;;0.00;0.00;;;15.90;99.90;;;;;;5030380;28;20053;-86
2022/11/01 08:05:17;;;;;;;0.00;0.00;;;16.00;99.90;;;;;;5043071;28;20097;-84
2022/11/01 08:07:44;;;;;;;0.00;0.00;;;;;;;;;;5036078;28;20105;-85
2022/11/01 08:10:11;;;;;;;0.00;0.00;;;;;;;;;;5035371;28;20109;-86
2022/11/01 08:12:38;;;;;;;0.00;0.00;;;;;;;;;;5026421;28;20073;-84
2022/11/01 08:15:06;;;;;;;0.00;0.00;;;16.20;99.90;;;;;;5029524;28;20469;-86
2022/11/01 08:17:33;;;;;;;0.00;0.00;;;16.30;99.90;;;;;;5044544;28;20042;-85
2022/11/01 08:20:02;;;;;;;0.00;0.00;;;16.40;99.90;;;;;;5040208;28;20052;-83
2022/11/01 08:22:29;;;;;;;0.00;0.00;;;;;;;;;;5031693;28;20050;-87
2022/11/01 08:24:56;;;;;;;0.00;0.00;;;16.40;99.90;;;;;;5030994;28;20152;-85
2022/11/01 08:27:23;;;;;;;0.00;0.00;;;;;;;;;;5035116;28;20065;-86
2022/11/01 08:29:51;;;;;;;0.00;0.00;;;;;;;;;;5033585;28;20568;-84
2022/11/01 08:32:19;;;;;;;0.00;0.00;;;16.60;99.90;;;;;;5041054;28;20065;-86
2022/11/01 08:34:46;;;;;;;0.05;0.05;;;16.70;99.90;;;;;;5035441;28;20109;-87
2022/11/01 08:37:14;;;;;;;0.00;0.00;;;16.70;99.90;;;;;;5038802;28;20076;-84
2022/11/01 08:39:41;;;;;;;0.00;0.00;;;16.70;99.90;;;;;;5035613;28;20049;-84
2022/11/01 08:42:08;;;;;;;0.00;0.00;;;16.70;99.90;;;;;;5039757;28;20072;-85
2022/11/01 08:44:36;;;;;;;0.00;0.00;;;;;;;;;;5042467;28;20109;-85
2022/11/01 08:47:03;;;;;;;0.00;0.00;;;16.80;99.90;;;;;;5043895;28;20124;-86
2022/11/01 08:49:30;;;;;;;0.00;0.00;;;19.10;99.90;;;;;;5048714;28;20302;-85
2022/11/01 08:51:57;;;;;;;0.00;0.00;;;16.80;99.90;;;;;;5038664;28;20120;-85
2022/11/01 08:54:25;;;;;;;0.00;0.00;;;16.70;99.90;;;;;;5039686;28;20128;-85
2022/11/01 08:56:52;;;;;;;0.00;0.00;;;;;;;;;;5033660;28;20069;-87
2022/11/01 08:59:20;;;;;;;0.00;0.00;;;;;;;;;;5054099;28;20556;-85
2022/11/01 09:01:47;;;;;;;0.00;0.00;;;16.60;99.90;;;;;;5033117;28;20065;-85
2022/11/01 09:04:14;;;;;;;0.00;0.00;;;;;;;;;;5021129;28;20075;-89
2022/11/01 09:06:41;;;;;;;0.00;0.00;;;;;;;;;;5035644;28;20056;-88
2022/11/01 09:09:11;;;;;;;0.00;0.00;;;;;;;;;;5032208;28;20117;-87
2022/11/01 09:11:40;;;;;;;0.00;0.00;;;16.20;99.90;;;;;;5036989;28;20139;-86
2022/11/01 09:14:06;;;;;;;0.00;0.00;;;16.20;99.90;;;;;;5032976;28;20140;-87
2022/11/01 09:16:34;;;;;;;0.10;0.10;;;;;;;;;;5037529;28;20068;-85
2022/11/01 09:19:02;;;;;;;0.00;0.00;;;16.00;99.90;;;;;;5034308;28;20153;-86
2022/11/01 09:21:29;;;;;;;0.00;0.00;;;15.90;99.90;;;;;;5035982;28;20116;-84
2022/11/01 09:23:58;;;;;;;0.00;0.00;;;;;;;;;;5036183;28;20049;-85
2022/11/01 09:26:28;;;;;;;0.00;0.00;;;15.90;99.90;;;;;;5030861;28;20068;-85
2022/11/01 09:28:57;;;;;;;;;;;15.80;99.90;;;;;;5036538;28;21115;-84
2022/11/01 09:31:25;;;;;;;0.00;0.00;;;;;;;;;;5050465;28;19948;-85
2022/11/01 09:33:54;;;;;;;0.00;0.00;;;15.80;99.90;;;;;;5037943;28;20049;-86
2022/11/01 09:36:21;;;;;;;0.00;0.00;;;16.60;99.90;;;;;;5041657;28;20101;-85
2022/11/01 09:38:49;;;;;;;0.00;0.00;;;;;;;;;;5032382;28;20132;-85
2022/11/01 09:41:26;;;;;;;0.00;0.00;;;15.90;99.90;;;;;;5036286;28;20156;-85
2022/11/01 09:43:55;;;;;;;0.00;0.00;;;16.00;99.90;;;;;;5039813;28;20071;-86
2022/11/01 09:46:30;;;;;;;0.00;0.00;;;16.00;99.90;;;;;;5018004;28;20093;-85
2022/11/01 09:48:59;;;;;;;0.00;0.00;;;16.00;99.90;;;;;;5041482;28;20045;-86
2022/11/01 09:51:28;;;;;;;0.00;0.00;;;;;;;;;;5033384;28;20052;-87
2022/11/01 09:54:00;;;;;;;0.00;0.00;;;16.00;99.90;;;;;;5030714;28;20140;-85
2022/11/01 09:56:31;;;;;;;0.00;0.00;;;16.00;99.90;;;;;;5031601;28;20048;-86
2022/11/01 09:59:07;;;;;;;0.00;0.00;;;16.00;99.90;;;;;;5037672;28;20489;-86
2022/11/01 10:01:51;;;;;;;0.00;0.00;;;17.10;99.90;;;;;;5037756;28;20085;-85
2022/11/01 10:04:46;;;;;;;0.00;0.00;;;16.80;99.90;;;;;;5036145;28;20050;-85
2022/11/01 10:07:20;;;;;;;0.00;0.00;;;16.00;99.90;;;;;;5036596;28;20501;-85
2022/11/01 10:09:54;;;;;;;0.00;0.00;;;16.00;99.90;;;;;;5028932;28;20075;-85
2022/11/01 10:12:34;;;;;;;0.00;0.00;;;15.90;99.90;;;;;;5037934;28;20076;-86
2022/11/01 10:15:15;;;;;;;0.00;0.00;;;15.90;99.90;;;;;;5038610;28;20120;-85
2022/11/01 10:17:49;;;;;;;0.10;0.10;;;15.80;99.90;;;;;;5028846;28;20426;-85
2022/11/01 10:20:33;;;;;;;0.00;0.00;;;15.90;99.90;;;;;;5023284;28;20054;-86
2022/11/01 10:23:02;;;;;;;0.00;0.00;;;15.90;99.40;;;;;;5047451;28;20418;-84
2022/11/01 10:25:31;;;;;;;;;;;15.90;99.60;;;;;;5032227;28;20417;-85
2022/11/01 10:28:06;;;;;;;0.00;0.00;;;15.90;99.50;;;;;;5034064;28;19980;-85
2022/11/01 10:30:37;;;;;;;0.00;0.00;;;15.80;99.00;;;;;;5041741;28;20045;-86
2022/11/01 10:33:22;;;;;;;0.00;0.00;;;15.70;99.30;;;;;;5025076;28;20063;-86
2022/11/01 10:35:53;;;;;;;0.00;0.00;;;15.70;99.10;;;;;;5036324;28;20068;-86
2022/11/01 10:38:36;;;;;;;0.00;0.00;;;15.70;98.80;;;;;;5036401;28;20069;-85
2022/11/01 10:41:30;;;;;;;0.00;0.00;;;15.70;99.00;;;;;;5032669;28;20063;-86
2022/11/01 10:44:01;;;;;;;0.00;0.00;;;15.70;99.30;;;;;;5027120;28;20049;-86
2022/11/01 10:46:32;;;;;;;0.00;0.00;;;15.70;98.40;;;;;;5033666;28;20049;-85
2022/11/01 10:49:04;;;;;;;0.00;0.00;;;15.70;98.50;;;;;;5039289;28;20052;-86
2022/11/01 10:51:34;;;;;;;0.00;0.00;;;15.70;98.20;;;;;;5030203;28;20069;-87
2022/11/01 10:54:04;;;;;;;0.00;0.00;;;15.80;97.50;;;;;;5036377;28;20136;-86
2022/11/01 10:56:35;;;;;;;0.00;0.00;;;15.80;97.70;;;;;;5036440;28;20128;-85
2022/11/01 10:59:06;;;;;;;0.00;0.00;;;15.80;98.30;;;;;;5035707;28;20109;-85
2022/11/01 11:01:38;;;;;;;0.00;0.00;;;15.80;98.40;;;;;;5038867;28;20073;-87
2022/11/01 11:04:10;;;;;;;0.00;0.00;;;15.80;98.60;;;;;;5038814;28;20049;-87
2022/11/01 11:06:38;;;;;;;0.00;0.00;;;15.80;98.60;;;;;;5033965;28;20145;-86
2022/11/01 11:09:16;;;;;;;0.00;0.00;;;15.90;98.50;;;;;;5035156;28;20107;-85
2022/11/01 11:11:45;;;;;;;0.00;0.00;;;15.90;98.80;;;;;;5037798;28;20128;-86
2022/11/01 11:16:58;;;;;;;0.00;0.00;;;15.90;97.60;;;;;;5030620;28;20042;-83
2022/11/01 11:19:33;;;;;;;0.00;0.00;;;15.90;98.10;;;;;;5031859;28;20034;-83
2022/11/01 11:22:05;;;;;;;0.00;0.00;;;15.90;98.30;;;;;;5030710;28;20051;-83
2022/11/01 11:24:35;;;;;;;0.00;0.00;;;15.90;98.10;;;;;;5030812;28;20046;-83
2022/11/01 11:27:11;;;;;;;0.00;0.00;;;15.90;98.20;;;;;;5029351;28;20567;-83
2022/11/01 11:29:40;;;;;;;0.00;0.00;;;15.90;98.40;;;;;;5027128;28;20068;-84
2022/11/01 11:32:13;;;;;;;;;;;15.90;98.70;;;;;;5037879;28;20319;-82
2022/11/01 11:34:43;;;;;;;0.00;0.00;;;15.90;98.80;;;;;;5043685;28;19925;-83
2022/11/01 11:37:18;;;;;;;0.00;0.00;;;15.90;98.30;;;;;;5025108;28;20712;-84
2022/11/01 11:40:05;;;;;;;0.00;0.00;;;16.00;98.50;;;;;;5030517;28;20408;-85
2022/11/01 11:42:32;;;;;;;0.00;0.00;;;;;;;;;;5030978;28;20040;-84
2022/11/01 11:45:14;;;;;;;0.00;0.00;;;16.00;99.00;;;;;;5026263;28;20102;-84
2022/11/01 11:47:42;;;;;;;0.00;0.00;;;;;;;;;;5028907;28;20060;-84
2022/11/01 11:50:24;;;;;;;0.00;0.00;;;16.00;99.40;;;;;;5027480;28;20072;-83
2022/11/01 11:52:57;;;;;;;0.00;0.00;;;16.00;98.70;;;;;;5031880;28;20075;-84
2022/11/01 11:55:41;;;;;;;0.00;0.00;;;16.00;98.90;;;;;;5032161;28;20483;-83
2022/11/01 11:58:18;;;;;;;0.10;0.10;;;16.00;98.40;;;;;;5030152;28;20112;-84
2022/11/01 12:00:48;;;;;;;0.00;0.00;;;16.00;98.40;;;;;;5032918;28;20497;-83
2022/11/01 12:03:16;;;;;;;0.00;0.00;;;16.00;99.00;;;;;;5032100;28;20128;-82
2022/11/01 12:05:56;;;;;;;0.00;0.00;;;16.00;99.20;;;;;;5029935;28;20045;-84
2022/11/01 12:08:37;;;;;;;0.00;0.00;;;16.00;99.30;;;;;;5026794;28;20046;-81
2022/11/01 12:11:08;;;;;;;;;;;16.00;99.50;;;;;;5029772;28;20060;-84
2022/11/01 12:13:37;;;;;;;;;;;16.00;99.90;;;;;;5028686;28;20377;-82
2022/11/01 12:16:20;;;;;;;0.00;0.00;;;16.00;99.30;;;;;;5031781;28;19921;-84
2022/11/01 12:18:53;;;;;;;0.00;0.00;;;15.90;98.80;;;;;;5044599;28;20072;-84
2022/11/01 12:21:27;;;;;;;0.00;0.00;;;16.00;99.00;;;;;;5029835;28;20132;-84
2022/11/01 12:23:58;;;;;;;0.00;0.00;;;16.00;99.80;;;;;;5031376;28;20076;-84
2022/11/01 12:26:28;;;;;;;0.00;0.00;;;16.10;99.90;;;;;;5032079;28;20117;-84
2022/11/01 12:29:12;;;;;;;0.00;0.00;;;16.00;99.90;;;;;;5026222;28;20084;-84
2022/11/01 12:31:42;;;;;;;0.00;0.00;;;16.10;98.80;;;;;;5031450;28;20478;-83
2022/11/01 12:34:12;;;;;;;;;;;16.20;99.00;;;;;;5031166;28;20412;-84
2022/11/01 12:36:47;;;;;;;0.00;0.00;;;16.10;99.40;;;;;;5030921;28;19998;-83
2022/11/01 12:39:30;;;;;;;0.00;0.00;;;16.10;98.90;;;;;;5025647;28;20041;-84
2022/11/01 12:41:59;;;;;;;0.00;0.00;;;;;;;;;;5047763;28;20139;-83
2022/11/01 12:44:31;;;;;;;0.03;0.03;;;16.10;98.90;;;;;;5029704;28;20045;-83
2022/11/01 12:47:04;;;;;;;0.00;0.00;;;16.20;99.50;;;;;;5028567;28;20132;-85
2022/11/01 12:49:36;;;;;;;0.00;0.00;;;16.20;99.60;;;;;;5028134;28;20049;-84
2022/11/01 12:52:14;;;;;;;0.00;0.00;;;16.20;99.00;;;;;;5031199;28;20136;-84
2022/11/01 12:54:48;;;;;;;0.00;0.00;;;16.20;99.30;;;;;;5024669;28;20128;-83
2022/11/01 12:57:17;;;;;;;0.00;0.00;;;16.20;99.80;;;;;;5028750;28;20065;-84
2022/11/01 12:59:45;;;;;;;0.00;0.00;;;16.30;98.90;;;;;;5030050;28;20111;-85
2022/11/01 13:02:29;;;;;;;0.00;0.00;;;16.30;98.70;;;;;;5027509;28;20069;-84
2022/11/01 13:05:01;;;;;;;0.00;0.00;;;16.30;98.70;;;;;;5028140;28;20049;-84
2022/11/01 13:07:42;;;;;;;0.00;0.00;;;16.30;98.40;;;;;;5032665;28;20037;-84
2022/11/01 13:10:17;;;;;;;0.00;0.00;;;16.30;98.50;;;;;;5032589;28;20048;-84
2022/11/01 13:12:52;;;;;;;0.03;0.03;;;16.30;98.50;;;;;;5025782;28;20045;-83
2022/11/01 13:15:23;;;;;;;0.00;0.00;;;17.10;98.30;;;;;;5029185;28;20110;-83
2022/11/01 13:18:02;;;;;;;0.10;0.10;;;16.20;98.30;;;;;;5034438;28;20103;-82
2022/11/01 13:20:37;;;;;;;0.00;0.00;;;16.20;97.90;;;;;;5030711;28;20502;-84
2022/11/01 13:23:15;;;;;;;0.00;0.00;;;17.90;98.80;;;;;;5030543;28;20077;-84
2022/11/01 13:25:48;;;;;;;0.00;0.00;;;16.10;98.50;;;;;;5030531;28;20060;-84
2022/11/01 13:28:26;;;;;;;0.00;0.00;;;16.10;98.30;;;;;;5041584;28;20064;-83
2022/11/01 13:31:00;;;;;;;0.00;0.00;;;16.10;98.50;;;;;;5036443;28;20053;-84
2022/11/01 13:33:36;;;;;;;0.00;0.00;;;15.90;98.60;;;;;;5038054;28;20095;-84
2022/11/01 13:36:14;;;;;;;0.00;0.00;;;16.10;98.80;;;;;;5036283;28;20040;-83
2022/11/01 13:38:54;;;;;;;0.00;0.00;;;16.10;98.60;;;;;;5036830;28;20042;-82